Time;durP1;ratioP1;P1;durP2;ratioP2;P2;SDS_P1;SDS_P2;PMS_P1;PMS_P2;Temp;Humidity;BMP_temperature;BMP_pressure;BME280_temperature;BME280_humidity;BME280_pressure;Samples;Min_cycle;Max_cycle;Signal;HPM_P1;HPM_P2
2021/06/18 00:00:32;;;;;;;8.07;7.37;;;20.20;99.90;;;;;;5034828;28;20804;-87
2021/06/18 00:02:58;;;;;;;7.07;6.47;;;20.20;99.90;;;;;;5037498;28;20465;-87
2021/06/18 00:05:26;;;;;;;9.57;7.40;;;20.20;99.90;;;;;;5036611;28;20533;-87
2021/06/18 00:07:52;;;;;;;8.17;7.47;;;20.20;99.90;;;;;;5036906;28;20184;-87
2021/06/18 00:10:21;;;;;;;7.80;7.20;;;20.10;99.90;;;;;;5036546;28;20469;-87
2021/06/18 00:12:47;;;;;;;8.43;6.70;;;19.90;99.90;;;;;;5036918;28;20442;-87
2021/06/18 00:15:12;;;;;;;10.13;6.43;;;19.80;99.90;;;;;;5039259;28;20442;-87
2021/06/18 00:17:40;;;;;;;7.43;6.87;;;19.70;99.90;;;;;;5035705;28;20198;-87
2021/06/18 00:20:08;;;;;;;6.83;6.23;;;19.60;99.90;;;;;;5021879;28;20484;-87
2021/06/18 00:22:35;;;;;;;7.60;7.00;;;19.60;99.90;;;;;;5034286;28;20454;-87
2021/06/18 00:25:00;;;;;;;6.57;6.17;;;19.60;99.90;;;;;;5036154;28;20795;-87
2021/06/18 00:27:28;;;;;;;7.23;6.60;;;19.60;99.90;;;;;;5034578;28;20482;-87
2021/06/18 00:29:57;;;;;;;7.90;7.20;;;19.60;99.90;;;;;;5035724;28;20199;-87
2021/06/18 00:32:23;;;;;;;7.80;7.20;;;19.60;99.90;;;;;;5037895;28;20442;-87
2021/06/18 00:34:48;;;;;;;9.03;6.93;;;19.50;99.90;;;;;;5034398;28;20219;-88
2021/06/18 00:37:14;;;;;;;8.10;7.33;;;19.40;99.90;;;;;;5035616;28;20199;-87
2021/06/18 00:39:40;;;;;;;7.40;6.70;;;19.40;99.90;;;;;;5018640;28;20196;-87
2021/06/18 00:42:07;;;;;;;7.13;6.43;;;19.40;99.90;;;;;;5039800;28;20744;-87
2021/06/18 00:44:32;;;;;;;6.67;5.93;;;19.50;99.90;;;;;;5036264;28;21179;-87
2021/06/18 00:46:58;;;;;;;7.20;6.57;;;19.50;99.90;;;;;;5032901;28;20442;-87
2021/06/18 00:49:25;;;;;;;7.60;6.90;;;19.40;99.90;;;;;;5036500;28;20277;-87
2021/06/18 00:51:51;;;;;;;7.13;6.63;;;19.30;99.90;;;;;;5036132;28;20329;-87
2021/06/18 00:54:28;;;;;;;7.23;6.63;;;19.20;99.90;;;;;;5034945;28;20860;-87
2021/06/18 00:56:59;;;;;;;10.47;9.50;;;19.30;99.90;;;;;;5036365;28;20483;-88
2021/06/18 00:59:27;;;;;;;10.27;9.47;;;19.50;99.90;;;;;;5035263;28;20492;-87
2021/06/18 01:01:53;;;;;;;11.00;10.20;;;19.60;99.90;;;;;;5038388;28;20540;-87
2021/06/18 01:04:23;;;;;;;11.83;10.93;;;19.60;99.90;;;;;;5018593;28;21046;-87
2021/06/18 01:07:22;;;;;;;13.00;12.00;;;19.50;99.90;;;;;;5031124;28;20439;-87
2021/06/18 01:10:04;;;;;;;11.93;10.87;;;19.40;99.90;;;;;;5027970;28;20807;-87
2021/06/18 01:12:35;;;;;;;12.87;11.83;;;19.30;99.90;;;;;;5034211;28;20453;-86
2021/06/18 01:15:08;;;;;;;13.23;12.03;;;19.10;99.90;;;;;;5034759;28;21026;-86
2021/06/18 01:18:02;;;;;;;11.67;10.67;;;19.00;99.90;;;;;;5034576;28;20466;-87
2021/06/18 01:21:02;;;;;;;11.93;11.03;;;18.90;99.90;;;;;;5037907;28;20442;-87
2021/06/18 01:23:28;;;;;;;10.20;9.50;;;18.90;99.90;;;;;;5038754;28;20481;-87
2021/06/18 01:26:17;;;;;;;9.53;8.73;;;18.80;99.90;;;;;;5036238;28;20449;-86
2021/06/18 01:28:56;;;;;;;9.37;8.57;;;18.70;99.90;;;;;;5030770;28;20192;-87
2021/06/18 01:31:43;;;;;;;9.00;8.30;;;18.60;99.90;;;;;;5033873;28;20538;-87
2021/06/18 01:34:30;;;;;;;11.10;10.00;;;18.60;99.90;;;;;;5031869;28;20823;-87
2021/06/18 01:37:17;;;;;;;10.10;9.33;;;18.80;99.90;;;;;;5035488;28;20482;-87
2021/06/18 01:39:47;;;;;;;10.30;9.47;;;18.90;99.90;;;;;;5037367;28;20446;-87
2021/06/18 01:42:15;;;;;;;11.33;10.33;;;19.00;99.90;;;;;;5034155;28;20450;-87
2021/06/18 01:44:41;;;;;;;11.97;10.87;;;19.10;99.90;;;;;;5049398;28;20631;-87
2021/06/18 01:47:09;;;;;;;12.30;11.30;;;19.10;99.90;;;;;;5046174;28;20442;-86
2021/06/18 01:49:38;;;;;;;11.60;10.80;;;19.00;99.90;;;;;;5039271;28;20496;-87
2021/06/18 01:52:06;;;;;;;12.70;11.63;;;19.00;99.90;;;;;;5032574;28;20434;-87
2021/06/18 01:54:33;;;;;;;11.67;10.80;;;19.00;99.90;;;;;;5038400;28;20923;-86
2021/06/18 01:57:01;;;;;;;11.70;10.80;;;18.90;99.90;;;;;;5044992;28;20441;-87
2021/06/18 01:59:31;;;;;;;12.10;11.10;;;18.80;99.90;;;;;;5035691;28;20804;-86
2021/06/18 02:02:00;;;;;;;11.90;10.73;;;18.60;99.90;;;;;;5035326;28;20529;-88
2021/06/18 02:04:31;;;;;;;11.47;10.57;;;18.60;99.90;;;;;;5031996;28;20520;-88
2021/06/18 02:06:58;;;;;;;11.43;10.23;;;18.60;99.90;;;;;;5037504;28;20453;-88
2021/06/18 02:09:27;;;;;;;11.03;10.10;;;18.60;99.90;;;;;;5036535;28;20450;-88
2021/06/18 02:11:54;;;;;;;11.27;10.43;;;18.70;99.90;;;;;;5037481;28;20430;-88
2021/06/18 02:14:30;;;;;;;10.17;9.37;;;18.60;99.90;;;;;;5024274;28;20450;-88
2021/06/18 02:17:02;;;;;;;10.70;9.90;;;18.60;99.90;;;;;;5031628;28;20449;-87
2021/06/18 02:19:30;;;;;;;11.57;10.77;;;18.60;99.90;;;;;;5030194;28;20509;-87
2021/06/18 02:21:58;;;;;;;11.70;10.70;;;18.70;99.90;;;;;;5027978;28;22097;-87
2021/06/18 02:24:27;;;;;;;11.10;10.13;;;18.70;99.90;;;;;;5044044;28;20490;-87
2021/06/18 02:26:54;;;;;;;12.20;11.00;;;18.70;99.90;;;;;;5033820;28;20449;-87
2021/06/18 02:29:21;;;;;;;10.80;9.90;;;18.60;99.90;;;;;;5042836;28;20581;-87
2021/06/18 02:31:48;;;;;;;11.67;10.50;;;18.50;99.90;;;;;;5033658;28;20446;-87
2021/06/18 02:34:14;;;;;;;11.50;10.47;;;18.40;99.90;;;;;;5036979;28;20947;-87
2021/06/18 02:36:42;;;;;;;10.30;9.60;;;18.30;99.90;;;;;;5027995;28;20457;-87
2021/06/18 02:39:10;;;;;;;10.90;10.00;;;18.20;99.90;;;;;;5029905;28;20441;-87
2021/06/18 02:41:37;;;;;;;11.60;10.40;;;18.20;99.90;;;;;;5032092;28;20455;-86
2021/06/18 02:44:05;;;;;;;11.87;10.83;;;18.30;99.90;;;;;;5036435;28;20474;-87
2021/06/18 02:46:54;;;;;;;11.40;10.50;;;18.40;99.90;;;;;;5016364;28;20454;-87
2021/06/18 02:49:39;;;;;;;12.77;11.67;;;18.50;99.90;;;;;;5031505;28;20534;-87
2021/06/18 02:52:08;;;;;;;13.20;12.10;;;18.40;99.90;;;;;;5033983;28;20811;-87
2021/06/18 02:54:48;;;;;;;12.53;11.57;;;18.50;99.90;;;;;;5036445;28;20455;-87
2021/06/18 02:57:20;;;;;;;12.27;11.07;;;18.70;99.90;;;;;;5035413;28;20454;-87
2021/06/18 02:59:57;;;;;;;13.07;12.07;;;18.60;99.90;;;;;;5035418;28;20485;-87
2021/06/18 03:02:30;;;;;;;12.97;11.80;;;18.70;99.90;;;;;;5048979;28;20838;-87
2021/06/18 03:04:57;;;;;;;13.80;12.50;;;18.70;99.90;;;;;;5051975;28;21068;-87
2021/06/18 03:07:32;;;;;;;13.33;11.93;;;18.70;99.90;;;;;;5036020;28;20441;-88
2021/06/18 03:10:05;;;;;;;12.50;11.57;;;18.70;99.90;;;;;;5033465;28;20461;-88
2021/06/18 03:16:01;;;;;;;11.63;10.63;;;18.50;99.90;;;;;;5034980;28;21618;-88
2021/06/18 03:18:29;;;;;;;13.57;12.37;;;18.30;99.90;;;;;;5035843;28;20600;-87
2021/06/18 03:21:19;;;;;;;13.40;12.40;;;18.30;99.90;;;;;;5036190;28;20433;-88
2021/06/18 03:23:46;;;;;;;13.80;12.37;;;18.50;99.90;;;;;;5037379;28;20547;-87
2021/06/18 03:26:13;;;;;;;14.80;13.30;;;18.60;99.90;;;;;;5035388;28;20454;-87
2021/06/18 03:28:40;;;;;;;13.83;12.63;;;18.70;99.90;;;;;;5042259;28;20425;-87
2021/06/18 03:31:07;;;;;;;12.40;11.13;;;18.60;99.90;;;;;;5040488;28;20835;-87
2021/06/18 03:33:33;;;;;;;11.03;10.17;;;18.50;99.90;;;;;;5039363;28;20496;-87
2021/06/18 03:36:00;;;;;;;11.70;10.70;;;18.60;99.90;;;;;;5038111;28;20473;-87
2021/06/18 03:38:26;;;;;;;11.07;10.07;;;18.60;99.90;;;;;;5036519;28;20794;-87
2021/06/18 03:40:52;;;;;;;11.50;10.40;;;18.70;99.90;;;;;;5053832;28;20450;-87
2021/06/18 03:43:19;;;;;;;11.83;10.63;;;18.70;99.90;;;;;;5036769;28;22547;-87
2021/06/18 03:45:48;;;;;;;12.30;11.10;;;18.70;99.90;;;;;;5051684;28;20446;-87
2021/06/18 03:48:16;;;;;;;11.50;10.60;;;18.50;99.90;;;;;;5038853;28;20842;-87
2021/06/18 03:50:41;;;;;;;10.77;9.87;;;18.40;99.90;;;;;;5037998;28;21022;-87
2021/06/18 03:53:09;;;;;;;11.40;10.30;;;18.40;99.90;;;;;;5037965;28;20521;-87
2021/06/18 03:55:35;;;;;;;12.03;11.03;;;18.40;99.90;;;;;;5038364;28;20764;-87
2021/06/18 03:58:04;;;;;;;11.83;10.50;;;18.50;99.90;;;;;;5026504;28;20536;-87
2021/06/18 04:00:36;;;;;;;10.73;9.97;;;18.70;99.90;;;;;;5035186;28;20442;-87
2021/06/18 04:03:04;;;;;;;11.33;10.53;;;18.80;99.90;;;;;;5031357;28;20975;-88
2021/06/18 04:05:31;;;;;;;11.80;10.90;;;18.80;99.90;;;;;;5032481;28;20504;-88
2021/06/18 04:07:58;;;;;;;11.27;10.40;;;18.60;99.90;;;;;;5033394;28;20493;-88
2021/06/18 04:10:24;;;;;;;13.17;11.97;;;18.60;99.90;;;;;;5037310;28;21138;-88
2021/06/18 04:12:51;;;;;;;12.47;11.57;;;18.50;99.90;;;;;;5035796;28;20456;-88
2021/06/18 04:15:22;;;;;;;12.47;11.50;;;18.40;99.90;;;;;;5036749;28;21017;-88
2021/06/18 04:17:50;;;;;;;11.13;10.13;;;18.30;99.90;;;;;;5031600;28;20454;-88
2021/06/18 04:20:19;;;;;;;12.20;10.90;;;18.20;99.90;;;;;;5035715;28;20978;-88
2021/06/18 04:22:49;;;;;;;10.87;9.87;;;18.10;99.90;;;;;;5036605;28;20434;-88
2021/06/18 04:25:14;;;;;;;11.53;10.53;;;18.10;99.90;;;;;;5036771;28;21026;-87
2021/06/18 04:27:40;;;;;;;11.40;10.30;;;18.10;99.90;;;;;;5034938;28;20453;-87
2021/06/18 04:33:08;;;;;;;13.90;12.70;;;18.40;99.90;;;;;;5035808;28;20237;-87
2021/06/18 04:35:33;;;;;;;12.97;11.97;;;18.40;99.90;;;;;;5036313;28;20582;-88
2021/06/18 04:38:00;;;;;;;12.67;11.57;;;18.40;99.90;;;;;;5035357;28;20280;-87
2021/06/18 04:40:25;;;;;;;13.07;12.07;;;18.40;99.90;;;;;;5036011;28;20190;-87
2021/06/18 04:42:51;;;;;;;14.30;13.00;;;18.30;99.90;;;;;;5036102;28;21062;-87
2021/06/18 04:45:18;;;;;;;12.47;11.50;;;18.30;99.90;;;;;;5035114;28;20275;-88
2021/06/18 04:47:44;;;;;;;12.60;11.30;;;18.30;99.90;;;;;;5030598;28;20192;-87
2021/06/18 04:50:10;;;;;;;11.57;10.77;;;18.30;99.90;;;;;;5038211;28;21058;-87
2021/06/18 04:52:41;;;;;;;11.47;10.57;;;18.20;99.90;;;;;;5036163;28;20658;-87
2021/06/18 04:55:09;;;;;;;11.23;10.30;;;18.30;99.90;;;;;;5038444;28;21631;-87
2021/06/18 04:57:34;;;;;;;10.93;9.93;;;18.50;99.90;;;;;;5041827;28;20842;-86
2021/06/18 05:00:00;;;;;;;12.00;10.90;;;18.60;99.90;;;;;;5041357;28;20438;-86
2021/06/18 05:02:26;;;;;;;11.30;10.40;;;18.80;99.90;;;;;;5042833;28;20849;-86
2021/06/18 05:04:52;;;;;;;11.53;10.00;;;18.90;99.90;;;;;;5040080;28;20586;-86
2021/06/18 05:07:19;;;;;;;12.30;11.00;;;19.00;99.90;;;;;;5041193;28;20290;-86
2021/06/18 05:09:45;;;;;;;11.90;10.70;;;19.10;99.90;;;;;;5057686;28;20780;-86
2021/06/18 05:12:11;;;;;;;11.20;10.20;;;19.30;99.90;;;;;;5040478;28;20430;-86
2021/06/18 05:14:37;;;;;;;12.87;11.57;;;19.40;99.90;;;;;;5044352;28;20637;-86
2021/06/18 05:17:02;;;;;;;11.23;10.33;;;19.50;99.90;;;;;;5038982;28;20184;-86
2021/06/18 05:19:28;;;;;;;12.63;11.53;;;19.50;99.90;;;;;;5040331;28;20274;-86
2021/06/18 05:21:54;;;;;;;36.27;13.63;;;19.60;99.90;;;;;;5042401;28;20669;-86
2021/06/18 05:24:19;;;;;;;12.57;11.30;;;19.80;99.90;;;;;;5040235;28;20219;-87
2021/06/18 05:26:45;;;;;;;12.70;11.20;;;19.90;99.90;;;;;;5042749;28;20187;-86
2021/06/18 05:29:11;;;;;;;12.20;11.07;;;20.10;99.90;;;;;;5040776;28;20199;-86
2021/06/18 05:31:36;;;;;;;12.90;11.93;;;20.20;99.90;;;;;;5041389;28;20215;-86
2021/06/18 05:34:03;;;;;;;12.50;11.30;;;20.20;99.90;;;;;;5040379;28;20203;-87
2021/06/18 05:36:29;;;;;;;12.60;11.50;;;20.20;99.90;;;;;;5042489;28;20311;-86
2021/06/18 05:38:57;;;;;;;12.47;11.47;;;20.40;99.90;;;;;;5040156;28;20563;-87
2021/06/18 05:41:22;;;;;;;12.50;11.50;;;20.50;99.90;;;;;;5040650;28;20180;-86
2021/06/18 05:43:48;;;;;;;12.37;11.17;;;20.60;99.90;;;;;;5041330;28;21054;-86
2021/06/18 05:46:21;;;;;;;12.17;11.13;;;20.50;99.90;;;;;;5038946;28;20600;-86
2021/06/18 05:48:47;;;;;;;12.50;11.50;;;20.60;99.90;;;;;;5041464;28;20470;-86
2021/06/18 05:51:12;;;;;;;13.30;12.30;;;20.60;99.90;;;;;;5041782;28;20211;-87
2021/06/18 05:53:38;;;;;;;13.10;12.00;;;20.80;99.90;;;;;;5043884;28;20227;-86
2021/06/18 05:56:04;;;;;;;13.23;11.97;;;20.80;99.90;;;;;;5039292;28;20187;-87
2021/06/18 05:58:30;;;;;;;13.20;12.00;;;20.80;99.90;;;;;;5039196;28;20188;-86
2021/06/18 06:00:55;;;;;;;12.57;11.57;;;20.70;99.90;;;;;;5042488;28;20438;-87
2021/06/18 06:03:22;;;;;;;13.27;11.80;;;20.90;99.90;;;;;;5040479;28;20261;-87
2021/06/18 06:05:48;;;;;;;16.30;12.53;;;21.00;99.90;;;;;;5036407;28;20187;-86
2021/06/18 06:08:14;;;;;;;13.20;12.03;;;21.20;99.90;;;;;;5049533;28;20454;-86
2021/06/18 06:10:40;;;;;;;14.40;12.20;;;21.30;99.90;;;;;;5040315;28;21956;-86
2021/06/18 06:13:06;;;;;;;14.83;13.23;;;21.40;99.90;;;;;;5039175;28;20633;-87
2021/06/18 06:15:32;;;;;;;12.60;11.60;;;21.50;99.90;;;;;;5035831;28;20242;-86
2021/06/18 06:17:59;;;;;;;13.50;12.30;;;21.60;99.90;;;;;;5040267;28;20523;-87
2021/06/18 06:20:25;;;;;;;11.73;10.80;;;21.70;99.90;;;;;;5039490;28;20865;-86
2021/06/18 06:22:51;;;;;;;12.33;11.23;;;21.80;99.90;;;;;;5037232;28;20446;-86
2021/06/18 06:25:16;;;;;;;11.50;10.40;;;21.80;99.90;;;;;;5036495;28;20240;-87
2021/06/18 06:27:42;;;;;;;11.37;10.37;;;22.00;99.90;;;;;;5036763;28;20187;-86
2021/06/18 06:30:13;;;;;;;11.37;10.37;;;22.10;99.90;;;;;;5037898;28;20234;-86
2021/06/18 06:32:39;;;;;;;11.47;10.30;;;22.10;99.90;;;;;;5038992;28;20184;-86
2021/06/18 06:35:08;;;;;;;11.10;10.20;;;22.30;99.90;;;;;;5038000;28;20843;-87
2021/06/18 06:40:23;;;;;;;9.80;8.90;;;22.60;99.90;;;;;;5038794;28;20473;-86
2021/06/18 06:42:51;;;;;;;10.00;9.23;;;22.70;99.90;;;;;;5043541;28;20541;-87
2021/06/18 06:45:19;;;;;;;10.00;9.20;;;22.80;99.90;;;;;;5043327;28;20814;-86
2021/06/18 06:48:08;;;;;;;10.10;9.10;;;22.90;99.90;;;;;;5040522;28;20450;-86
2021/06/18 06:50:33;;;;;;;9.90;9.30;;;23.10;99.90;;;;;;5036389;28;20435;-87
2021/06/18 06:53:21;;;;;;;9.33;8.63;;;23.10;99.90;;;;;;5040948;28;21002;-87
2021/06/18 06:55:48;;;;;;;10.60;9.80;;;23.30;99.90;;;;;;5044473;28;20434;-87
2021/06/18 06:58:15;;;;;;;10.33;9.47;;;23.50;99.90;;;;;;5043381;28;20537;-87
2021/06/18 07:00:42;;;;;;;8.93;8.13;;;23.60;99.90;;;;;;5043490;28;20517;-87
2021/06/18 07:03:09;;;;;;;10.40;9.63;;;23.70;99.90;;;;;;5039808;28;20469;-87
2021/06/18 07:05:54;;;;;;;9.83;9.03;;;23.80;99.80;;;;;;5042793;28;20845;-87
2021/06/18 07:08:23;;;;;;;9.37;8.57;;;23.90;98.90;;;;;;5040345;28;20437;-87
2021/06/18 07:10:53;;;;;;;9.77;7.87;;;24.00;99.10;;;;;;5045004;28;20610;-87
2021/06/18 07:13:19;;;;;;;10.47;8.47;;;24.10;97.70;;;;;;5028525;28;20830;-87
2021/06/18 07:15:46;;;;;;;8.50;7.80;;;24.20;98.10;;;;;;5040123;28;21089;-87
2021/06/18 07:18:13;;;;;;;8.90;8.00;;;24.20;97.60;;;;;;5048964;28;20849;-87
2021/06/18 07:20:39;;;;;;;8.23;7.40;;;24.30;98.20;;;;;;5026792;28;20801;-86
2021/06/18 07:23:06;;;;;;;8.40;7.70;;;24.50;97.20;;;;;;5026320;28;20509;-87
2021/06/18 07:25:32;;;;;;;10.43;8.57;;;24.50;97.80;;;;;;5026685;28;20507;-87
2021/06/18 07:27:59;;;;;;;8.13;7.43;;;24.80;97.60;;;;;;5043544;28;20770;-87
2021/06/18 07:30:26;;;;;;;8.67;7.90;;;24.90;97.90;;;;;;5036494;28;20449;-87
2021/06/18 07:32:52;;;;;;;9.73;8.00;;;24.90;96.90;;;;;;5058083;28;20267;-86
2021/06/18 07:35:18;;;;;;;9.87;7.40;;;25.00;97.20;;;;;;5041770;28;20604;-87
2021/06/18 07:37:44;;;;;;;8.47;7.63;;;25.00;96.70;;;;;;5041442;28;20563;-87
2021/06/18 07:40:13;;;;;;;8.17;7.33;;;25.10;97.20;;;;;;5041446;28;20210;-87
2021/06/18 07:42:39;;;;;;;8.20;7.60;;;25.20;96.20;;;;;;5039096;28;20529;-87
2021/06/18 07:45:14;;;;;;;9.00;8.17;;;25.40;96.40;;;;;;5047321;28;20627;-86
2021/06/18 07:47:45;;;;;;;8.43;7.73;;;25.40;97.40;;;;;;5042116;28;20529;-87
2021/06/18 07:50:13;;;;;;;9.60;8.37;;;25.30;97.80;;;;;;5038687;28;20506;-87
2021/06/18 07:52:41;;;;;;;9.53;8.53;;;25.30;97.20;;;;;;5040017;28;20422;-87
2021/06/18 07:55:10;;;;;;;9.50;8.30;;;25.50;97.30;;;;;;5040540;28;22176;-87
2021/06/18 07:57:36;;;;;;;8.50;7.90;;;25.70;96.20;;;;;;5045127;28;20461;-87
2021/06/18 08:00:07;;;;;;;8.33;7.73;;;25.70;96.50;;;;;;5045577;28;20434;-87
2021/06/18 08:02:33;;;;;;;8.30;7.50;;;25.80;96.00;;;;;;5043564;28;20434;-87
2021/06/18 08:04:58;;;;;;;11.43;8.60;;;25.90;96.40;;;;;;5043751;28;20478;-85
2021/06/18 08:07:26;;;;;;;9.20;8.40;;;26.00;97.30;;;;;;5040016;28;20188;-87
2021/06/18 08:09:53;;;;;;;8.70;8.00;;;26.10;96.50;;;;;;5040015;28;20207;-87
2021/06/18 08:12:21;;;;;;;8.57;7.87;;;26.40;95.50;;;;;;5041173;28;20441;-87
2021/06/18 08:14:46;;;;;;;8.07;7.47;;;26.50;96.90;;;;;;5039255;28;21179;-87
2021/06/18 08:17:12;;;;;;;8.67;7.87;;;26.50;96.60;;;;;;5041230;28;20484;-86
2021/06/18 08:19:38;;;;;;;7.90;7.30;;;26.50;95.60;;;;;;5039331;28;20436;-87
2021/06/18 08:22:05;;;;;;;8.40;7.70;;;26.50;95.60;;;;;;5040538;28;20226;-87
2021/06/18 08:24:32;;;;;;;8.77;8.10;;;26.70;98.10;;;;;;5042609;28;20667;-87
2021/06/18 08:27:01;;;;;;;8.57;7.50;;;26.90;96.00;;;;;;5040319;28;20437;-87
2021/06/18 08:29:26;;;;;;;8.90;8.20;;;27.00;95.00;;;;;;5039210;28;20464;-87
2021/06/18 08:31:53;;;;;;;8.70;8.00;;;26.80;94.00;;;;;;5042911;28;20569;-86
2021/06/18 08:34:19;;;;;;;9.23;8.43;;;26.80;94.50;;;;;;5041192;28;20199;-86
2021/06/18 08:36:45;;;;;;;8.90;8.10;;;26.90;94.00;;;;;;5042360;28;20502;-86
2021/06/18 08:39:10;;;;;;;8.90;8.17;;;27.00;94.00;;;;;;5041372;28;20274;-87
2021/06/18 08:41:36;;;;;;;9.10;8.50;;;27.00;94.40;;;;;;5037886;28;21000;-87
2021/06/18 08:44:03;;;;;;;9.03;8.10;;;27.30;94.40;;;;;;5036266;28;20306;-87
2021/06/18 08:46:29;;;;;;;8.37;7.77;;;27.30;95.70;;;;;;5041263;28;20492;-87
2021/06/18 08:48:55;;;;;;;9.70;9.00;;;27.60;95.70;;;;;;5038969;28;20489;-87
2021/06/18 08:51:21;;;;;;;9.33;8.63;;;27.70;96.50;;;;;;5040843;28;20196;-87
2021/06/18 08:53:49;;;;;;;8.90;8.30;;;27.80;96.30;;;;;;5044302;28;20191;-87
2021/06/18 08:56:15;;;;;;;9.43;8.03;;;27.80;95.00;;;;;;5042354;28;21216;-87
2021/06/18 08:58:51;;;;;;;9.67;8.97;;;28.00;95.80;;;;;;5041785;28;20425;-87
2021/06/18 09:01:17;;;;;;;10.20;9.10;;;28.10;95.00;;;;;;5041811;28;20232;-87
2021/06/18 09:03:47;;;;;;;9.60;8.73;;;28.10;95.50;;;;;;5045720;28;20489;-87
2021/06/18 09:06:25;;;;;;;8.77;8.17;;;28.20;94.90;;;;;;5036781;28;20405;-87
2021/06/18 09:09:17;;;;;;;9.90;9.10;;;28.30;95.30;;;;;;5043671;28;20438;-87
2021/06/18 09:12:03;;;;;;;9.53;8.63;;;28.30;94.70;;;;;;5039422;28;20792;-87
2021/06/18 09:14:37;;;;;;;9.43;8.57;;;28.30;92.70;;;;;;5039113;28;20445;-87
2021/06/18 09:17:27;;;;;;;8.90;8.30;;;28.30;93.40;;;;;;5038813;28;20509;-87
2021/06/18 09:19:56;;;;;;;8.83;8.23;;;28.50;92.40;;;;;;5042199;28;20470;-87
2021/06/18 09:22:23;;;;;;;11.23;9.07;;;28.70;93.50;;;;;;5039638;28;20788;-87
2021/06/18 09:24:59;;;;;;;9.30;8.50;;;28.80;92.40;;;;;;5033227;28;20890;-87
2021/06/18 09:27:34;;;;;;;9.50;8.90;;;28.90;92.20;;;;;;5034300;28;20762;-87
2021/06/18 09:30:19;;;;;;;8.80;8.13;;;29.00;92.50;;;;;;5036833;28;20443;-87
2021/06/18 09:33:00;;;;;;;10.00;9.20;;;29.10;93.40;;;;;;5035907;28;20704;-87
2021/06/18 09:35:26;;;;;;;10.50;9.70;;;28.70;92.10;;;;;;5041320;28;20462;-87
2021/06/18 09:37:55;;;;;;;9.90;9.20;;;28.70;91.20;;;;;;5038449;28;20437;-87
2021/06/18 09:40:21;;;;;;;9.60;8.90;;;29.00;90.70;;;;;;5037826;28;20435;-87
2021/06/18 09:42:50;;;;;;;9.43;8.70;;;29.10;89.50;;;;;;5039216;28;20741;-87
2021/06/18 09:45:42;;;;;;;8.87;8.00;;;28.70;90.50;;;;;;5037302;28;20459;-87
2021/06/18 09:48:15;;;;;;;9.80;8.80;;;28.80;91.70;;;;;;5036148;28;20442;-87
2021/06/18 09:50:46;;;;;;;9.20;8.50;;;29.20;92.90;;;;;;5036739;28;21174;-87
2021/06/18 09:53:21;;;;;;;9.53;8.60;;;29.40;93.20;;;;;;5039800;28;20446;-87
2021/06/18 09:55:48;;;;;;;9.43;8.53;;;29.60;92.90;;;;;;5048539;28;20438;-87
2021/06/18 09:58:48;;;;;;;9.70;9.00;;;29.50;89.40;;;;;;5037947;28;20430;-87
2021/06/18 10:01:35;;;;;;;9.17;8.43;;;29.60;90.50;;;;;;5021854;28;20959;-87
2021/06/18 10:04:13;;;;;;;9.40;8.50;;;30.00;91.00;;;;;;5035927;28;20486;-87
2021/06/18 10:06:40;;;;;;;9.00;8.20;;;30.40;90.90;;;;;;5033985;28;20835;-87
2021/06/18 10:09:11;;;;;;;9.00;8.40;;;30.40;87.70;;;;;;5052616;28;20437;-87
2021/06/18 10:11:42;;;;;;;9.40;8.60;;;30.50;88.20;;;;;;5029735;28;21025;-87
2021/06/18 10:14:08;;;;;;;9.80;9.10;;;30.50;87.30;;;;;;5034699;28;20481;-87
2021/06/18 10:16:34;;;;;;;9.93;9.13;;;30.70;89.80;;;;;;5036712;28;20935;-87
2021/06/18 10:19:01;;;;;;;9.30;8.60;;;30.80;89.90;;;;;;5034673;28;20782;-87
2021/06/18 10:21:47;;;;;;;8.90;8.00;;;31.00;88.90;;;;;;5051397;28;20430;-87
2021/06/18 10:24:16;;;;;;;9.57;8.77;;;30.90;89.40;;;;;;5031776;28;20488;-86
2021/06/18 10:26:49;;;;;;;9.00;8.30;;;31.00;88.30;;;;;;5032549;28;20477;-87
2021/06/18 10:29:37;;;;;;;9.60;8.80;;;30.90;89.00;;;;;;5037960;28;20449;-87
2021/06/18 10:32:28;;;;;;;8.83;8.17;;;30.90;84.80;;;;;;5032639;28;20456;-87
2021/06/18 10:34:56;;;;;;;9.67;8.90;;;30.80;87.50;;;;;;5033339;28;20497;-87
2021/06/18 10:37:27;;;;;;;10.40;9.40;;;31.10;88.80;;;;;;5014017;28;20565;-87
2021/06/18 10:40:04;;;;;;;9.40;8.27;;;31.50;85.10;;;;;;5035729;28;20446;-87
2021/06/18 10:42:31;;;;;;;8.67;7.90;;;31.70;80.50;;;;;;5032551;28;20434;-86
2021/06/18 10:44:56;;;;;;;8.80;8.20;;;31.60;80.50;;;;;;5035696;28;20551;-87
2021/06/18 10:47:22;;;;;;;9.03;8.20;;;31.70;81.90;;;;;;5034425;28;20434;-87
2021/06/18 10:49:52;;;;;;;7.30;6.80;;;31.90;81.20;;;;;;5049433;28;20618;-87
2021/06/18 10:52:25;;;;;;;7.57;7.07;;;31.70;73.50;;;;;;5034453;28;20188;-87
2021/06/18 10:54:56;;;;;;;8.90;6.83;;;31.70;76.70;;;;;;5033946;28;20450;-87
2021/06/18 10:57:26;;;;;;;6.47;5.80;;;31.90;73.70;;;;;;5036420;28;20457;-87
2021/06/18 10:59:56;;;;;;;6.63;6.17;;;31.90;70.90;;;;;;5035879;28;20442;-87
2021/06/18 11:02:22;;;;;;;6.67;6.17;;;31.80;65.00;;;;;;5051427;28;20438;-87
2021/06/18 11:04:55;;;;;;;6.40;5.93;;;31.80;69.10;;;;;;5037489;28;20643;-87
2021/06/18 11:07:30;;;;;;;5.63;5.30;;;32.00;65.70;;;;;;5034592;28;20523;-87
2021/06/18 11:10:12;;;;;;;7.23;6.30;;;32.20;65.70;;;;;;5037990;28;20446;-87
2021/06/18 11:13:01;;;;;;;6.37;5.87;;;32.30;67.70;;;;;;5037403;28;20426;-87
2021/06/18 11:15:30;;;;;;;5.90;5.50;;;32.60;61.00;;;;;;5050982;28;20438;-87
2021/06/18 11:18:11;;;;;;;5.77;5.47;;;32.60;61.60;;;;;;5032430;28;20435;-85
2021/06/18 11:20:36;;;;;;;6.13;5.60;;;32.50;59.90;;;;;;5034384;28;20456;-85
2021/06/18 11:23:14;;;;;;;6.20;5.70;;;32.30;60.30;;;;;;5031855;28;20777;-85
2021/06/18 11:25:39;;;;;;;6.10;5.70;;;32.50;65.50;;;;;;5032917;28;20199;-85
2021/06/18 11:31:08;;;;;;;5.13;4.80;;;33.10;61.10;;;;;;5039551;28;20192;-87
2021/06/18 11:33:46;;;;;;;5.97;5.47;;;33.50;58.40;;;;;;5038448;28;20449;-87
2021/06/18 11:36:20;;;;;;;5.90;5.50;;;33.50;59.00;;;;;;5035651;28;20544;-87
2021/06/18 11:38:50;;;;;;;5.40;5.00;;;33.50;54.50;;;;;;5037178;28;20718;-87
2021/06/18 11:41:20;;;;;;;5.37;5.07;;;33.40;54.20;;;;;;5036788;28;20469;-87
2021/06/18 11:43:50;;;;;;;5.60;5.10;;;33.80;50.80;;;;;;5040216;28;21086;-87
2021/06/18 11:46:19;;;;;;;5.63;5.23;;;33.90;56.10;;;;;;5036758;28;20445;-87
2021/06/18 11:48:44;;;;;;;7.13;6.43;;;33.60;56.90;;;;;;5035542;28;20966;-87
2021/06/18 11:51:23;;;;;;;5.67;5.23;;;33.40;55.90;;;;;;5037461;28;20449;-87
2021/06/18 11:53:49;;;;;;;5.60;5.20;;;33.30;56.00;;;;;;5036489;28;20194;-87
2021/06/18 11:56:16;;;;;;;5.63;5.17;;;33.50;53.50;;;;;;5036770;28;20923;-87
2021/06/18 11:58:44;;;;;;;5.70;4.83;;;33.40;54.00;;;;;;5042593;28;20438;-87
2021/06/18 12:01:29;;;;;;;5.70;5.20;;;33.70;56.70;;;;;;5041777;28;20924;-87
2021/06/18 12:03:57;;;;;;;5.40;5.00;;;33.70;56.50;;;;;;5034079;28;20971;-87
2021/06/18 12:06:24;;;;;;;7.90;5.43;;;33.80;54.80;;;;;;5037209;28;20536;-87
2021/06/18 12:09:00;;;;;;;6.30;5.80;;;34.00;50.40;;;;;;5036468;28;20483;-85
2021/06/18 12:11:30;;;;;;;5.90;5.50;;;34.50;52.70;;;;;;5036749;28;20515;-85
2021/06/18 12:13:56;;;;;;;6.27;5.57;;;34.70;54.30;;;;;;5037109;28;20996;-85
2021/06/18 12:16:27;;;;;;;6.70;5.67;;;34.90;52.10;;;;;;5035494;28;20457;-84
2021/06/18 12:18:53;;;;;;;5.93;5.43;;;34.90;52.00;;;;;;5036600;28;20943;-85
2021/06/18 12:21:28;;;;;;;5.73;5.33;;;34.90;53.00;;;;;;5035918;28;20468;-85
2021/06/18 12:24:06;;;;;;;5.93;5.30;;;35.00;52.70;;;;;;5036634;28;20851;-84
2021/06/18 12:26:33;;;;;;;6.00;5.50;;;34.90;51.00;;;;;;5036965;28;20452;-84
2021/06/18 12:29:04;;;;;;;8.80;6.20;;;34.40;49.80;;;;;;5036794;28;20506;-87
2021/06/18 12:31:32;;;;;;;6.37;5.50;;;34.00;48.30;;;;;;5036024;28;20834;-87
2021/06/18 12:33:58;;;;;;;6.13;5.73;;;34.60;49.70;;;;;;5041159;28;20452;-86
2021/06/18 12:36:24;;;;;;;6.33;5.93;;;34.60;51.20;;;;;;5036956;28;20985;-86
2021/06/18 12:38:52;;;;;;;5.73;5.43;;;35.00;51.80;;;;;;5035508;28;20441;-87
2021/06/18 12:41:28;;;;;;;6.07;5.53;;;35.10;48.10;;;;;;5036044;28;20194;-87
2021/06/18 12:44:04;;;;;;;6.40;6.00;;;35.60;53.30;;;;;;5036664;28;20485;-87
2021/06/18 12:46:30;;;;;;;6.73;6.23;;;35.40;52.50;;;;;;5035328;28;20472;-87
2021/06/18 12:49:07;;;;;;;9.50;6.03;;;35.30;50.40;;;;;;5034819;28;20472;-87
2021/06/18 12:51:34;;;;;;;6.70;6.20;;;35.80;51.40;;;;;;5037923;28;20193;-87
2021/06/18 12:54:04;;;;;;;6.80;6.20;;;35.60;50.40;;;;;;5036250;28;20433;-87
2021/06/18 12:56:42;;;;;;;7.07;6.17;;;35.80;49.40;;;;;;5037441;28;20446;-87
2021/06/18 12:59:16;;;;;;;7.23;6.63;;;35.70;50.90;;;;;;5028736;28;20447;-87
2021/06/18 13:01:44;;;;;;;5.90;5.50;;;36.30;50.50;;;;;;5037790;28;20472;-87
2021/06/18 13:04:11;;;;;;;18.30;7.93;;;36.80;49.30;;;;;;5032705;28;20473;-87